createdAt,value
2022-12-31T03:45:59.891Z,69.27
2022-12-31T03:48:28.336Z,68.42
2022-12-31T03:50:56.398Z,67.53
2022-12-31T03:53:24.612Z,67.49
2022-12-31T03:55:53.618Z,68.63
2022-12-31T03:58:22.727Z,68.96
2022-12-31T04:00:51.036Z,68.14
2022-12-31T04:03:20.567Z,67.66
2022-12-31T04:05:53.990Z,67.37
2022-12-31T04:08:22.063Z,67.54
2022-12-31T04:10:50.103Z,69.05
2022-12-31T04:13:18.104Z,68.26
2022-12-31T04:15:46.088Z,68.59
2022-12-31T04:18:14.117Z,68.44
2022-12-31T04:20:43.476Z,68.77
2022-12-31T04:23:11.494Z,67.89
2022-12-31T04:25:39.504Z,66.71
2022-12-31T04:28:07.570Z,67.53
2022-12-31T04:30:35.555Z,67.22
2022-12-31T04:33:03.538Z,67.71
2022-12-31T04:35:31.537Z,67.45
2022-12-31T04:38:00.987Z,67.43
2022-12-31T04:40:29.204Z,69.74
2022-12-31T04:42:57.232Z,70.55
2022-12-31T04:45:25.186Z,69.12
2022-12-31T04:47:53.205Z,68.92
2022-12-31T04:50:21.147Z,69.22
2022-12-31T04:52:49.135Z,69.22
2022-12-31T04:55:18.697Z,69.04
2022-12-31T04:57:46.653Z,69.19
2022-12-31T05:00:15.271Z,68.40
2022-12-31T05:02:43.515Z,67.92
2022-12-31T05:05:11.579Z,67.17
2022-12-31T05:07:39.536Z,68.54
2022-12-31T05:10:08.514Z,67.06
2022-12-31T05:12:37.902Z,66.93
2022-12-31T05:15:06.964Z,66.82
2022-12-31T05:17:35.209Z,67.48
2022-12-31T05:20:03.272Z,68.14
2022-12-31T05:22:31.258Z,69.05
2022-12-31T05:25:00.214Z,67.68
2022-12-31T05:27:31.099Z,68.48
2022-12-31T05:30:00.995Z,68.79
2022-12-31T05:32:29.055Z,68.71
2022-12-31T05:34:57.538Z,69.61
2022-12-31T05:37:25.517Z,68.52
2022-12-31T05:39:53.527Z,67.83
2022-12-31T05:42:24.740Z,67.62
2022-12-31T05:44:52.769Z,67.37
2022-12-31T05:47:22.289Z,67.60
2022-12-31T05:49:50.386Z,67.58
2022-12-31T05:52:18.407Z,67.58
2022-12-31T05:54:46.407Z,68.11
2022-12-31T05:57:14.905Z,67.59
2022-12-31T05:59:42.907Z,67.39
2022-12-31T06:02:10.868Z,67.32
2022-12-31T06:04:40.214Z,67.06
2022-12-31T06:07:08.655Z,67.11
2022-12-31T06:09:36.694Z,67.48
2022-12-31T06:12:05.253Z,67.58
2022-12-31T06:14:33.324Z,67.83
2022-12-31T06:17:01.410Z,67.42
2022-12-31T06:19:29.551Z,67.80
2022-12-31T06:21:58.965Z,68.16
2022-12-31T06:24:26.968Z,67.46
2022-12-31T06:26:54.987Z,67.93
2022-12-31T06:29:22.989Z,67.25
2022-12-31T06:31:51.109Z,67.10
2022-12-31T06:34:19.245Z,67.39
2022-12-31T06:36:47.199Z,66.03
2022-12-31T06:39:16.537Z,66.71
2022-12-31T06:41:44.612Z,66.94
2022-12-31T06:44:12.578Z,66.99
2022-12-31T06:46:40.682Z,67.27
2022-12-31T06:49:08.899Z,66.62
2022-12-31T06:51:36.900Z,67.67
2022-12-31T06:54:05.102Z,68.03
2022-12-31T06:56:35.300Z,66.89
2022-12-31T06:59:05.155Z,67.47
2022-12-31T07:01:51.468Z,68.19
2022-12-31T07:04:47.848Z,68.50
2022-12-31T07:07:21.448Z,69.32
2022-12-31T07:09:58.561Z,69.80
2022-12-31T07:12:42.921Z,69.12
2022-12-31T07:15:15.868Z,68.50
2022-12-31T07:17:53.076Z,67.54
2022-12-31T07:20:22.243Z,66.37
2022-12-31T07:22:51.030Z,67.37
2022-12-31T07:25:22.076Z,67.15
2022-12-31T07:28:05.724Z,67.34
2022-12-31T07:30:41.110Z,67.35
2022-12-31T07:33:47.889Z,67.96
2022-12-31T07:36:29.005Z,68.06
2022-12-31T07:39:05.237Z,69.72
2022-12-31T07:41:48.213Z,69.40
2022-12-31T07:44:35.432Z,68.11
2022-12-31T07:47:06.261Z,68.77
2022-12-31T07:49:35.958Z,67.86
2022-12-31T07:52:04.468Z,68.21
2022-12-31T07:54:32.690Z,67.79
2022-12-31T07:57:00.971Z,66.89
2022-12-31T07:59:43.770Z,66.68
2022-12-31T08:02:21.284Z,67.84
2022-12-31T08:04:57.891Z,68.35
2022-12-31T08:07:37.378Z,68.15
2022-12-31T08:10:17.729Z,68.36
2022-12-31T08:12:50.267Z,66.96
2022-12-31T08:15:25.441Z,67.23
2022-12-31T08:17:57.232Z,67.96
2022-12-31T08:20:26.951Z,65.99
2022-12-31T08:23:19.643Z,66.43
2022-12-31T08:26:28.627Z,66.29
2022-12-31T08:29:12.495Z,67.03
2022-12-31T08:31:53.826Z,66.05
2022-12-31T08:34:37.838Z,65.95
2022-12-31T08:37:12.547Z,65.47
2022-12-31T08:39:57.388Z,66.10
2022-12-31T08:42:34.000Z,65.45
2022-12-31T08:45:12.138Z,65.07
2022-12-31T08:47:52.759Z,63.93
2022-12-31T08:50:25.519Z,63.59
2022-12-31T08:52:54.217Z,62.85
2022-12-31T08:55:23.013Z,63.29
2022-12-31T08:58:05.871Z,63.21
2022-12-31T09:00:36.237Z,62.87
2022-12-31T09:03:22.174Z,62.82
2022-12-31T09:06:02.510Z,62.33
2022-12-31T09:08:39.751Z,61.94
2022-12-31T09:11:20.813Z,61.95
2022-12-31T09:14:06.290Z,61.87
2022-12-31T09:16:41.871Z,62.49
2022-12-31T09:19:11.672Z,62.72
2022-12-31T09:21:44.355Z,62.31
2022-12-31T09:24:14.708Z,62.93
2022-12-31T09:26:56.514Z,63.00
2022-12-31T09:29:43.701Z,63.44
2022-12-31T09:32:20.871Z,63.49
2022-12-31T09:34:56.259Z,63.88
2022-12-31T09:37:37.308Z,64.25
2022-12-31T09:40:30.164Z,63.53
2022-12-31T09:43:22.375Z,63.27
2022-12-31T09:46:20.688Z,62.89
2022-12-31T09:49:07.567Z,62.51
2022-12-31T09:51:44.469Z,62.20
2022-12-31T09:54:35.916Z,62.06
2022-12-31T09:57:20.499Z,62.90
2022-12-31T09:59:57.374Z,62.34
2022-12-31T10:02:45.298Z,61.35
2022-12-31T10:05:45.033Z,61.58
2022-12-31T10:08:31.275Z,60.81
2022-12-31T10:11:04.302Z,60.18
2022-12-31T10:13:47.374Z,60.39
2022-12-31T10:16:25.979Z,59.47
2022-12-31T10:19:38.857Z,59.35
2022-12-31T10:22:20.710Z,59.49
2022-12-31T10:25:07.459Z,59.38
2022-12-31T10:27:50.918Z,59.26
2022-12-31T10:30:21.329Z,59.34
2022-12-31T10:33:07.892Z,59.07
2022-12-31T10:35:43.904Z,60.27
2022-12-31T10:38:23.446Z,59.99
2022-12-31T10:41:21.940Z,60.00
2022-12-31T10:44:15.868Z,59.55
2022-12-31T10:47:29.500Z,59.35
2022-12-31T10:50:30.275Z,59.57
2022-12-31T10:53:43.316Z,59.15
2022-12-31T10:57:01.195Z,59.11
2022-12-31T11:00:07.714Z,58.72
2022-12-31T11:03:14.673Z,58.07
2022-12-31T11:06:18.519Z,58.70
2022-12-31T11:09:02.316Z,58.17
2022-12-31T11:11:38.602Z,58.99
2022-12-31T11:14:39.969Z,59.03
2022-12-31T11:17:26.877Z,59.12
2022-12-31T11:20:08.450Z,59.02
2022-12-31T11:22:52.047Z,58.29
2022-12-31T11:25:30.253Z,57.90
2022-12-31T11:28:13.081Z,57.93
2022-12-31T11:30:52.973Z,57.84
2022-12-31T11:33:36.414Z,57.30
2022-12-31T11:36:18.501Z,57.38
2022-12-31T11:38:53.359Z,56.85
2022-12-31T11:41:32.282Z,56.57
2022-12-31T11:44:13.767Z,56.44
2022-12-31T11:46:55.711Z,56.78
2022-12-31T11:49:42.423Z,57.23
2022-12-31T11:52:38.689Z,57.75
2022-12-31T11:55:28.634Z,57.13
2022-12-31T11:58:04.184Z,55.98
2022-12-31T12:00:33.991Z,56.07
2022-12-31T12:03:04.755Z,55.00
2022-12-31T12:05:36.657Z,55.16
2022-12-31T12:08:06.943Z,56.19
2022-12-31T12:10:39.755Z,54.99
2022-12-31T12:13:14.847Z,54.37
2022-12-31T12:15:46.906Z,54.69
2022-12-31T12:18:26.425Z,54.09
2022-12-31T12:21:01.814Z,54.45
2022-12-31T12:23:33.077Z,54.80
2022-12-31T12:26:01.217Z,55.25
2022-12-31T12:28:31.473Z,55.11
2022-12-31T12:31:02.456Z,55.67
2022-12-31T12:33:41.539Z,56.04
2022-12-31T12:36:11.303Z,56.23
2022-12-31T12:38:41.268Z,56.56
2022-12-31T12:41:13.596Z,56.94
2022-12-31T12:43:41.715Z,58.11
2022-12-31T12:46:21.732Z,58.40
2022-12-31T12:48:55.604Z,57.74
2022-12-31T12:51:41.208Z,57.85
2022-12-31T12:54:19.128Z,59.28
2022-12-31T12:56:55.046Z,59.35
2022-12-31T12:59:49.300Z,59.21
2022-12-31T13:02:31.131Z,59.22
2022-12-31T13:05:12.079Z,60.25
2022-12-31T13:07:52.541Z,60.71
2022-12-31T13:10:41.944Z,60.27
2022-12-31T13:13:24.907Z,60.33
2022-12-31T13:15:59.797Z,60.07
2022-12-31T13:18:41.227Z,59.70
2022-12-31T13:21:34.415Z,59.69
2022-12-31T13:24:12.857Z,60.20
2022-12-31T13:26:47.664Z,60.29
2022-12-31T13:29:20.889Z,59.84
2022-12-31T13:31:51.625Z,60.50
2022-12-31T13:34:25.504Z,60.39
2022-12-31T13:36:56.343Z,60.55
2022-12-31T13:39:28.461Z,60.83
2022-12-31T13:42:02.986Z,60.66
2022-12-31T13:44:36.063Z,60.78
2022-12-31T13:47:12.889Z,59.85
2022-12-31T13:49:47.541Z,59.58
2022-12-31T13:52:28.520Z,58.35
2022-12-31T13:55:04.969Z,58.17
2022-12-31T13:57:43.425Z,57.57
2022-12-31T14:00:20.837Z,57.30
2022-12-31T14:02:57.980Z,57.54
2022-12-31T14:05:32.307Z,57.94
2022-12-31T14:08:03.318Z,57.67
2022-12-31T14:10:42.820Z,58.35
2022-12-31T14:13:41.405Z,58.13
2022-12-31T14:16:20.081Z,59.48
2022-12-31T14:18:57.991Z,59.91
2022-12-31T14:21:33.490Z,59.14
2022-12-31T14:24:10.855Z,58.66
2022-12-31T14:26:43.650Z,58.20
2022-12-31T14:29:29.803Z,58.37
2022-12-31T14:32:16.364Z,57.81
2022-12-31T14:34:57.447Z,58.62
2022-12-31T14:37:35.116Z,58.68
2022-12-31T14:40:14.405Z,59.21
2022-12-31T14:42:54.302Z,59.96
2022-12-31T14:45:40.449Z,59.53
2022-12-31T14:48:23.910Z,59.14
2022-12-31T14:50:54.846Z,58.87
2022-12-31T14:53:25.889Z,58.44
2022-12-31T14:56:02.854Z,58.26
2022-12-31T14:58:34.400Z,57.87
2022-12-31T15:01:08.839Z,57.56
2022-12-31T15:03:45.434Z,57.90
2022-12-31T15:06:42.646Z,57.37
2022-12-31T15:09:20.951Z,56.64
2022-12-31T15:12:08.009Z,56.93
2022-12-31T15:15:00.113Z,56.09
2022-12-31T15:17:41.901Z,54.22
2022-12-31T15:20:36.216Z,53.56
2022-12-31T15:23:04.652Z,52.20
2022-12-31T15:25:40.728Z,52.14
2022-12-31T15:28:29.270Z,51.94
2022-12-31T15:31:03.170Z,51.92
2022-12-31T15:33:37.711Z,51.65
2022-12-31T15:36:20.339Z,52.27
2022-12-31T15:38:49.667Z,53.06
2022-12-31T15:41:27.862Z,53.27
2022-12-31T15:44:01.631Z,53.28
2022-12-31T15:46:33.488Z,53.47
2022-12-31T15:49:10.242Z,56.26
2022-12-31T15:51:48.318Z,57.30
2022-12-31T15:54:25.423Z,57.62
2022-12-31T15:56:55.305Z,58.05
2022-12-31T15:59:26.183Z,57.96
2022-12-31T16:01:57.561Z,58.40
2022-12-31T16:04:29.050Z,59.12
2022-12-31T16:07:01.489Z,59.02
2022-12-31T16:09:34.170Z,59.77
2022-12-31T16:12:04.970Z,59.72
2022-12-31T16:14:37.967Z,60.36
2022-12-31T16:17:07.478Z,60.63
2022-12-31T16:19:43.358Z,60.55
2022-12-31T16:22:16.764Z,61.29
2022-12-31T16:25:19.547Z,61.81
2022-12-31T16:27:36.655Z,62.09
2022-12-31T16:30:08.553Z,62.75
2022-12-31T16:32:39.686Z,63.89
2022-12-31T16:38:05.314Z,64.19
2022-12-31T16:40:33.508Z,64.62
2022-12-31T16:43:01.995Z,64.83
2022-12-31T16:45:35.076Z,64.63
2022-12-31T16:48:16.364Z,65.50
2022-12-31T16:50:46.431Z,67.56
2022-12-31T16:53:19.256Z,67.27
2022-12-31T16:55:54.511Z,66.69
2022-12-31T16:58:28.177Z,66.74
2022-12-31T17:01:01.314Z,67.35
2022-12-31T17:03:30.349Z,67.06
2022-12-31T17:06:04.003Z,66.18
2022-12-31T17:08:43.104Z,66.80
2022-12-31T17:11:25.521Z,67.79
2022-12-31T17:13:56.484Z,66.89
2022-12-31T17:16:25.678Z,67.19
2022-12-31T17:18:53.841Z,67.23
2022-12-31T17:21:26.390Z,67.53
2022-12-31T17:24:02.129Z,66.96
2022-12-31T17:26:33.269Z,68.08
2022-12-31T17:29:03.962Z,68.74
2022-12-31T17:31:35.225Z,69.94
2022-12-31T17:34:21.464Z,69.01
2022-12-31T17:37:00.254Z,70.77
2022-12-31T17:39:44.463Z,71.60
2022-12-31T17:42:13.737Z,70.44
2022-12-31T17:44:44.725Z,70.52
2022-12-31T17:47:15.087Z,70.96
2022-12-31T17:49:46.546Z,69.84
2022-12-31T17:52:16.888Z,69.89
2022-12-31T17:54:46.371Z,70.54
2022-12-31T17:57:27.055Z,71.77
2022-12-31T17:59:55.276Z,71.79
2022-12-31T18:02:23.738Z,70.26
2022-12-31T18:04:53.364Z,69.47
2022-12-31T18:07:24.759Z,68.63
2022-12-31T18:09:54.167Z,69.19
2022-12-31T18:12:22.617Z,68.59
2022-12-31T18:14:50.781Z,68.63
2022-12-31T18:17:18.770Z,67.73
2022-12-31T18:20:04.135Z,67.51
2022-12-31T18:22:33.384Z,67.05
2022-12-31T18:25:07.437Z,69.45
2022-12-31T18:27:35.713Z,68.20
2022-12-31T18:30:08.592Z,68.77
2022-12-31T18:32:38.234Z,68.78
2022-12-31T18:35:32.869Z,68.11
2022-12-31T18:38:00.715Z,67.64
2022-12-31T18:40:30.416Z,68.68
2022-12-31T18:43:04.698Z,68.17
2022-12-31T18:45:35.763Z,67.30
2022-12-31T18:48:04.084Z,67.54
2022-12-31T18:50:34.863Z,67.43
2022-12-31T18:53:03.803Z,68.46
2022-12-31T18:55:40.269Z,68.15
2022-12-31T18:58:08.763Z,69.07
2022-12-31T19:00:38.157Z,67.84
2022-12-31T19:03:06.709Z,67.16
2022-12-31T19:05:38.120Z,66.19
2022-12-31T19:08:06.686Z,66.50
2022-12-31T19:10:36.390Z,65.47
2022-12-31T19:13:05.021Z,65.91
2022-12-31T19:15:36.450Z,66.44
2022-12-31T19:18:04.712Z,65.47
2022-12-31T19:20:32.968Z,65.78
2022-12-31T19:23:01.141Z,66.22
2022-12-31T19:25:33.843Z,66.92
2022-12-31T19:28:04.365Z,66.57
2022-12-31T19:30:34.451Z,66.10
2022-12-31T19:33:02.600Z,65.46
2022-12-31T19:35:30.716Z,65.73
2022-12-31T19:37:59.941Z,65.84
2022-12-31T19:40:30.424Z,65.80
2022-12-31T19:42:59.327Z,66.55
2022-12-31T19:45:32.112Z,65.61
2022-12-31T19:48:00.357Z,65.62
2022-12-31T19:50:29.621Z,65.20
2022-12-31T19:52:59.870Z,65.53
2022-12-31T19:55:28.177Z,65.15
2022-12-31T19:57:56.606Z,65.69
2022-12-31T20:00:24.779Z,65.74
2022-12-31T20:02:54.702Z,65.71
2022-12-31T20:05:23.035Z,64.97
2022-12-31T20:07:51.497Z,65.24
2022-12-31T20:10:20.016Z,65.80
2022-12-31T20:12:48.153Z,65.15
2022-12-31T20:15:16.507Z,65.68
2022-12-31T20:17:44.548Z,65.12
2022-12-31T20:20:14.383Z,65.68
2022-12-31T20:22:42.620Z,65.29
2022-12-31T20:25:11.223Z,66.07
2022-12-31T20:27:39.767Z,65.93
2022-12-31T20:30:09.747Z,67.31
2022-12-31T20:32:40.747Z,66.83
2022-12-31T20:35:09.255Z,66.55
2022-12-31T20:37:39.585Z,66.90
2022-12-31T20:40:09.091Z,66.14
2022-12-31T20:42:40.059Z,66.39
2022-12-31T20:45:10.082Z,65.83
2022-12-31T20:47:38.242Z,64.75
2022-12-31T20:50:11.863Z,65.10
2022-12-31T20:52:43.554Z,64.70
2022-12-31T20:55:13.858Z,63.88
2022-12-31T20:57:42.097Z,63.64
2022-12-31T21:00:12.389Z,62.92
2022-12-31T21:02:42.735Z,63.26
2022-12-31T21:05:12.057Z,62.59
2022-12-31T21:07:41.862Z,61.46
2022-12-31T21:10:10.481Z,62.39
2022-12-31T21:12:45.067Z,62.65
2022-12-31T21:15:13.892Z,61.75
2022-12-31T21:17:42.063Z,62.18
2022-12-31T21:20:11.057Z,61.23
2022-12-31T21:22:39.543Z,60.96
2022-12-31T21:25:11.259Z,61.38
2022-12-31T21:27:39.371Z,60.81
2022-12-31T21:30:24.150Z,61.35
2022-12-31T21:32:52.558Z,61.38
2022-12-31T21:38:10.217Z,61.63
2022-12-31T21:40:39.910Z,60.82
2022-12-31T21:43:08.237Z,61.91
2022-12-31T21:45:36.279Z,62.25
2022-12-31T21:48:25.061Z,61.64
2022-12-31T21:50:55.114Z,61.17
2022-12-31T21:53:30.475Z,62.00
2022-12-31T21:56:08.661Z,61.89
2022-12-31T21:58:37.265Z,61.80
2022-12-31T22:01:23.804Z,63.21
2022-12-31T22:03:52.435Z,62.59
2022-12-31T22:06:23.100Z,62.61
2022-12-31T22:08:52.939Z,63.08
2022-12-31T22:11:23.592Z,64.55
2022-12-31T22:13:52.597Z,64.71
2022-12-31T22:16:23.469Z,65.00
2022-12-31T22:18:51.806Z,63.98
2022-12-31T22:21:22.377Z,64.25
2022-12-31T22:23:52.627Z,64.72
2022-12-31T22:26:24.784Z,64.66
2022-12-31T22:28:59.798Z,64.80
2022-12-31T22:31:31.571Z,64.72
2022-12-31T22:34:00.667Z,64.77
2022-12-31T22:36:29.288Z,65.00
2022-12-31T22:38:59.995Z,64.33
2022-12-31T22:41:33.111Z,63.50
2022-12-31T22:44:04.807Z,64.52
2022-12-31T22:46:37.046Z,64.24
2022-12-31T22:49:05.756Z,63.95
2022-12-31T22:51:57.397Z,64.37
2022-12-31T22:54:23.079Z,64.16
2022-12-31T22:56:53.143Z,64.06
2022-12-31T22:59:21.222Z,63.33
2022-12-31T23:01:49.462Z,62.44
2022-12-31T23:04:17.567Z,62.54
2022-12-31T23:06:45.699Z,62.60
2022-12-31T23:09:36.083Z,61.77
2022-12-31T23:12:09.634Z,61.64
2022-12-31T23:14:55.466Z,60.92
2022-12-31T23:17:45.795Z,61.10
2022-12-31T23:20:35.039Z,62.22
2022-12-31T23:23:10.607Z,62.49
2022-12-31T23:25:41.569Z,62.38
2022-12-31T23:28:13.681Z,61.64
2022-12-31T23:30:43.028Z,62.37
2022-12-31T23:33:15.996Z,62.65
2022-12-31T23:35:44.682Z,63.19
2022-12-31T23:38:14.002Z,63.12
2022-12-31T23:40:42.429Z,63.54
2022-12-31T23:43:20.922Z,62.77
2022-12-31T23:45:50.440Z,63.77
2022-12-31T23:48:18.876Z,63.18
2022-12-31T23:50:53.018Z,63.34
2022-12-31T23:53:22.963Z,64.13
2022-12-31T23:55:51.467Z,64.22
2022-12-31T23:58:22.391Z,64.00
